![]() |
EMODnet Physics ERDDAP
Easier access to scientific data |
log in|
Brought to you by EMODnet Physics |
| Dataset Title: | NDBC - Collection of dew point temperature (DEWT) TimeSeries - IN SITU MultiPointTimeSeriesObservation
|
| Institution: | NDBC (Dataset ID: TS_DEWT_NDBC) |
| Information: | Summary
| License
| FGDC
| ISO 19115
| Metadata
| Background
| Subset
| Data Access Form
| Make a graph
|
| Name | Last modified | Size | Description | |
|---|---|---|---|---|
| Parent Directory | - | - | ||
| JLXA2_TS_DEWT_012019.nc | 27-Oct-2024 11:34 | 427404 | ||
| JLXA2_TS_DEWT_012020.nc | 27-Oct-2024 11:34 | 429680 | ||
| JLXA2_TS_DEWT_012021.nc | 27-Oct-2024 11:34 | 429690 | ||
| JLXA2_TS_DEWT_012022.nc | 27-Oct-2024 11:35 | 429597 | ||
| JLXA2_TS_DEWT_012023.nc | 27-Oct-2024 11:35 | 429679 | ||
| JLXA2_TS_DEWT_012024.nc | 27-Oct-2024 11:35 | 429547 | ||
| JLXA2_TS_DEWT_012025.nc | 07-Feb-2025 09:53 | 419050 | ||
| JLXA2_TS_DEWT_012026.nc | 02-Feb-2026 16:36 | 429665 | ||
| JLXA2_TS_DEWT_022018.nc | 27-Oct-2024 11:35 | 429680 | ||
| JLXA2_TS_DEWT_022019.nc | 27-Oct-2024 11:35 | 429693 | ||
| JLXA2_TS_DEWT_022020.nc | 27-Oct-2024 11:35 | 422052 | ||
| JLXA2_TS_DEWT_022021.nc | 27-Oct-2024 11:35 | 429686 | ||
| JLXA2_TS_DEWT_022022.nc | 27-Oct-2024 11:35 | 429633 | ||
| JLXA2_TS_DEWT_022023.nc | 27-Oct-2024 11:35 | 429679 | ||
| JLXA2_TS_DEWT_022024.nc | 16-Sep-2024 16:51 | 429687 | ||
| JLXA2_TS_DEWT_022025.nc | 03-Mar-2025 04:38 | 429687 | ||
| JLXA2_TS_DEWT_022026.nc | 01-Mar-2026 15:13 | 429905 | ||
| JLXA2_TS_DEWT_032018.nc | 27-Oct-2024 11:35 | 429903 | ||
| JLXA2_TS_DEWT_032019.nc | 27-Oct-2024 11:35 | 429125 | ||
| JLXA2_TS_DEWT_032020.nc | 27-Oct-2024 11:35 | 428254 | ||
| JLXA2_TS_DEWT_032021.nc | 27-Oct-2024 11:35 | 429903 | ||
| JLXA2_TS_DEWT_032022.nc | 27-Oct-2024 11:35 | 429900 | ||
| JLXA2_TS_DEWT_032023.nc | 27-Oct-2024 11:35 | 429908 | ||
| JLXA2_TS_DEWT_032025.nc | 02-Apr-2025 03:39 | 429903 | ||
| JLXA2_TS_DEWT_032026.nc | 22-Mar-2026 05:11 | 429902 | ||
| JLXA2_TS_DEWT_042018.nc | 27-Oct-2024 11:35 | 429900 | ||
| JLXA2_TS_DEWT_042019.nc | 27-Oct-2024 11:35 | 429906 | ||
| JLXA2_TS_DEWT_042020.nc | 27-Oct-2024 11:36 | 429902 | ||
| JLXA2_TS_DEWT_042021.nc | 27-Oct-2024 11:36 | 429550 | ||
| JLXA2_TS_DEWT_042022.nc | 27-Oct-2024 11:36 | 429908 | ||
| JLXA2_TS_DEWT_042023.nc | 27-Oct-2024 11:36 | 418873 | ||
| JLXA2_TS_DEWT_042025.nc | 01-May-2025 04:53 | 1143273 | ||
| JLXA2_TS_DEWT_052018.nc | 27-Oct-2024 11:36 | 1143200 | ||
| JLXA2_TS_DEWT_052019.nc | 27-Oct-2024 11:36 | 1194125 | ||
| JLXA2_TS_DEWT_052020.nc | 27-Oct-2024 11:36 | 1143231 | ||
| JLXA2_TS_DEWT_052021.nc | 27-Oct-2024 11:36 | 5469512 | ||
| JLXA2_TS_DEWT_052022.nc | 27-Oct-2024 11:36 | 427657 | ||
| JLXA2_TS_DEWT_052023.nc | 27-Oct-2024 11:36 | 421173 | ||
| JLXA2_TS_DEWT_052025.nc | 01-Jun-2025 08:18 | 429344 | ||
| JLXA2_TS_DEWT_062018.nc | 27-Oct-2024 11:36 | 429356 | ||
| JLXA2_TS_DEWT_062019.nc | 27-Oct-2024 11:36 | 429358 | ||
| JLXA2_TS_DEWT_062020.nc | 27-Oct-2024 11:36 | 429348 | ||
| JLXA2_TS_DEWT_062021.nc | 27-Oct-2024 11:36 | 429308 | ||
| JLXA2_TS_DEWT_062022.nc | 27-Oct-2024 11:36 | 429360 | ||
| JLXA2_TS_DEWT_062023.nc | 27-Oct-2024 11:36 | 429215 | ||
| JLXA2_TS_DEWT_062025.nc | 17-Jun-2025 06:31 | 429364 | ||
| JLXA2_TS_DEWT_072018.nc | 27-Oct-2024 11:36 | 421452 | ||
| JLXA2_TS_DEWT_072019.nc | 27-Oct-2024 11:37 | 429359 | ||
| JLXA2_TS_DEWT_072020.nc | 27-Oct-2024 11:37 | 419309 | ||
| JLXA2_TS_DEWT_072021.nc | 27-Oct-2024 11:37 | 429377 | ||
| JLXA2_TS_DEWT_072022.nc | 27-Oct-2024 11:37 | 429362 | ||
| JLXA2_TS_DEWT_072023.nc | 27-Oct-2024 11:37 | 429362 | ||
| JLXA2_TS_DEWT_072025.nc | 16-Aug-2025 06:44 | 429349 | ||
| JLXA2_TS_DEWT_082018.nc | 27-Oct-2024 11:37 | 429357 | ||
| JLXA2_TS_DEWT_082019.nc | 27-Oct-2024 11:37 | 429559 | ||
| JLXA2_TS_DEWT_082020.nc | 27-Oct-2024 11:37 | 429565 | ||
| JLXA2_TS_DEWT_082021.nc | 27-Oct-2024 11:37 | 429492 | ||
| JLXA2_TS_DEWT_082022.nc | 27-Oct-2024 11:37 | 429226 | ||
| JLXA2_TS_DEWT_082023.nc | 27-Oct-2024 11:37 | 429565 | ||
| JLXA2_TS_DEWT_082025.nc | 01-Sep-2025 07:13 | 429562 | ||
| JLXA2_TS_DEWT_092018.nc | 27-Oct-2024 11:37 | 429558 | ||
| JLXA2_TS_DEWT_092019.nc | 27-Oct-2024 11:37 | 429562 | ||
| JLXA2_TS_DEWT_092020.nc | 27-Oct-2024 11:37 | 429561 | ||
| JLXA2_TS_DEWT_092021.nc | 27-Oct-2024 11:37 | 429561 | ||
| JLXA2_TS_DEWT_092022.nc | 27-Oct-2024 11:38 | 429563 | ||
| JLXA2_TS_DEWT_092023.nc | 27-Oct-2024 11:38 | 429565 | ||
| JLXA2_TS_DEWT_092025.nc | 01-Oct-2025 07:10 | 429749 | ||
| JLXA2_TS_DEWT_102018.nc | 27-Oct-2024 11:38 | 429565 | ||
| JLXA2_TS_DEWT_102019.nc | 27-Oct-2024 11:38 | 994789 | ||
| JLXA2_TS_DEWT_102020.nc | 27-Oct-2024 11:38 | 994760 | ||
| JLXA2_TS_DEWT_102021.nc | 27-Oct-2024 11:38 | 994734 | ||
| JLXA2_TS_DEWT_102022.nc | 27-Oct-2024 11:38 | 994784 | ||
| JLXA2_TS_DEWT_102023.nc | 27-Oct-2024 11:38 | 5341632 | ||
| JLXA2_TS_DEWT_102025.nc | 01-Nov-2025 05:58 | 429670 | ||
| JLXA2_TS_DEWT_112019.nc | 27-Oct-2024 11:38 | 429667 | ||
| JLXA2_TS_DEWT_112020.nc | 27-Oct-2024 11:38 | 429679 | ||
| JLXA2_TS_DEWT_112021.nc | 27-Oct-2024 11:38 | 429601 | ||
| JLXA2_TS_DEWT_112022.nc | 27-Oct-2024 11:38 | 429686 | ||
| JLXA2_TS_DEWT_112023.nc | 27-Oct-2024 11:38 | 429660 | ||
| JLXA2_TS_DEWT_112024.nc | 17-Jan-2025 17:39 | 429681 | ||
| JLXA2_TS_DEWT_112025.nc | 01-Dec-2025 09:49 | 429664 | ||
| JLXA2_TS_DEWT_122018.nc | 27-Oct-2024 11:38 | 429680 | ||
| JLXA2_TS_DEWT_122019.nc | 27-Oct-2024 11:38 | 429681 | ||
| JLXA2_TS_DEWT_122020.nc | 27-Oct-2024 11:38 | 429691 | ||
| JLXA2_TS_DEWT_122022.nc | 27-Oct-2024 11:39 | 429681 | ||
| JLXA2_TS_DEWT_122023.nc | 27-Oct-2024 11:39 | 429686 | ||
| JLXA2_TS_DEWT_122024.nc | 22-Jan-2025 18:24 | 429692 | ||
| JLXA2_TS_DEWT_122025.nc | 01-Jan-2026 04:26 | 429679 | ||